createdAt,value
2019-01-25T00:00:24.795Z,23.38
2019-01-25T00:07:59.331Z,23.60
2019-01-25T00:10:31.858Z,22.42
2019-01-25T00:13:03.837Z,21.80
2019-01-25T00:15:35.656Z,25.00
2019-01-25T00:18:07.583Z,22.02
2019-01-25T00:20:38.782Z,23.35
2019-01-25T00:23:10.609Z,26.02
2019-01-25T00:25:42.423Z,23.50
2019-01-25T00:28:14.320Z,26.07
2019-01-25T00:30:45.917Z,22.32
2019-01-25T00:33:18.274Z,26.07
2019-01-25T00:35:50.422Z,24.23
2019-01-25T00:38:24.343Z,23.38
2019-01-25T00:40:56.873Z,25.45
2019-01-25T00:43:28.787Z,24.30
2019-01-25T00:48:31.799Z,27.62
2019-01-25T00:53:34.921Z,24.07
2019-01-25T00:56:07.679Z,26.12
2019-01-25T00:58:39.399Z,23.60
2019-01-25T01:01:11.338Z,25.12
2019-01-25T01:03:42.997Z,24.15
2019-01-25T01:06:14.807Z,24.45
2019-01-25T01:11:17.435Z,28.10
2019-01-25T01:13:49.097Z,27.32
2019-01-25T01:16:20.827Z,26.73
2019-01-25T01:18:52.630Z,25.02
2019-01-25T01:23:55.547Z,24.07
2019-01-25T01:26:27.932Z,25.32
2019-01-25T01:28:59.779Z,26.30
2019-01-25T01:34:02.745Z,27.55
2019-01-25T01:39:07.267Z,22.35
2019-01-25T01:41:38.871Z,24.75
2019-01-25T01:44:10.737Z,23.38
2019-01-25T01:49:13.741Z,24.05
2019-01-25T01:54:16.439Z,26.80
2019-01-25T01:56:48.306Z,22.13
2019-01-25T01:59:19.836Z,23.62
2019-01-25T02:01:51.840Z,23.85
2019-01-25T02:04:23.751Z,23.42
2019-01-25T02:09:26.332Z,22.58
2019-01-25T02:11:57.977Z,24.82
2019-01-25T02:14:30.305Z,23.32
2019-01-25T02:17:01.917Z,22.37
2019-01-25T02:19:33.835Z,24.23
2019-01-25T02:22:05.887Z,24.18
2019-01-25T02:24:37.709Z,24.20
2019-01-25T02:27:09.781Z,22.73
2019-01-25T02:32:12.283Z,23.80
2019-01-25T02:34:43.853Z,25.82
2019-01-25T02:37:15.444Z,26.87
2019-01-25T02:39:47.288Z,22.50
2019-01-25T02:42:19.079Z,26.97
2019-01-25T02:44:50.816Z,26.25
2019-01-25T02:47:22.637Z,24.70
2019-01-25T02:49:54.371Z,24.05
2019-01-25T02:52:26.066Z,25.02
2019-01-25T02:54:57.832Z,24.92
2019-01-25T02:57:29.613Z,23.62
2019-01-25T03:00:01.378Z,25.25
2019-01-25T03:02:33.091Z,25.37
2019-01-25T03:05:04.761Z,26.80
2019-01-25T03:10:10.321Z,25.72
2019-01-25T03:12:42.330Z,25.10
2019-01-25T03:15:18.760Z,24.45
2019-01-25T03:20:21.764Z,23.92
2019-01-25T03:25:29.087Z,24.10
2019-01-25T03:28:00.836Z,23.25
2019-01-25T03:30:33.080Z,26.17
2019-01-25T03:33:04.774Z,25.10
2019-01-25T03:38:07.304Z,25.37
2019-01-25T03:40:38.876Z,25.02
2019-01-25T03:43:10.782Z,24.10
2019-01-25T03:48:13.312Z,25.08
2019-01-25T03:50:44.853Z,27.42
2019-01-25T03:53:16.606Z,23.77
2019-01-25T03:55:48.374Z,25.72
2019-01-25T03:58:21.806Z,23.62
2019-01-25T04:00:53.591Z,22.37
2019-01-25T04:03:25.311Z,24.85
2019-01-25T04:05:56.862Z,23.92
2019-01-25T04:08:28.725Z,24.02
2019-01-25T04:13:32.871Z,25.65
2019-01-25T04:16:04.775Z,24.82
2019-01-25T04:21:07.313Z,23.95
2019-01-25T04:23:38.845Z,24.23
2019-01-25T04:26:10.786Z,23.40
2019-01-25T04:31:13.320Z,23.30
2019-01-25T04:33:44.832Z,24.45
2019-01-25T04:36:16.632Z,25.25
2019-01-25T04:38:48.376Z,24.35
2019-01-25T04:41:20.803Z,23.85
2019-01-25T04:43:52.849Z,27.60
2019-01-25T04:46:24.863Z,23.87
2019-01-25T04:48:56.844Z,23.12
2019-01-25T04:51:28.778Z,23.98
2019-01-25T04:56:33.090Z,23.07
2019-01-25T04:59:15.329Z,22.90
2019-01-25T05:01:47.013Z,24.47
2019-01-25T05:04:18.830Z,21.93
2019-01-25T05:06:50.802Z,20.35
2019-01-25T05:09:22.604Z,23.50
2019-01-25T05:11:54.359Z,23.42
2019-01-25T05:14:26.087Z,24.52
2019-01-25T05:16:57.782Z,23.95
2019-01-25T05:22:00.368Z,23.75
2019-01-25T05:24:32.410Z,22.42
2019-01-25T05:27:04.313Z,21.80
2019-01-25T05:29:57.318Z,22.10
2019-01-25T05:32:29.006Z,27.02
2019-01-25T05:35:00.841Z,24.63
2019-01-25T05:37:32.601Z,23.32
2019-01-25T05:40:04.007Z,22.27
2019-01-25T05:42:35.389Z,25.40
2019-01-25T05:45:13.449Z,24.52
2019-01-25T05:47:45.321Z,24.77
2019-01-25T05:50:17.341Z,25.50
2019-01-25T05:52:48.927Z,22.13
2019-01-25T05:55:22.768Z,22.58
2019-01-25T05:58:01.318Z,25.52
2019-01-25T06:00:38.336Z,24.95
2019-01-25T06:03:18.363Z,21.77
2019-01-25T06:05:50.061Z,22.93
2019-01-25T06:08:32.799Z,25.82
2019-01-25T06:16:12.417Z,23.07
2019-01-25T06:18:44.073Z,26.17
2019-01-25T06:21:16.789Z,26.10
2019-01-25T06:26:19.316Z,24.43
2019-01-25T06:28:54.316Z,27.85
2019-01-25T06:31:25.914Z,24.10
2019-01-25T06:33:57.790Z,21.60
2019-01-25T06:39:00.283Z,23.02
2019-01-25T06:41:32.271Z,23.80
2019-01-25T06:44:03.868Z,21.95
2019-01-25T06:46:35.735Z,20.68
2019-01-25T06:49:07.377Z,22.70
2019-01-25T06:51:39.067Z,25.20
2019-01-25T06:54:10.784Z,24.10
2019-01-25T06:59:16.377Z,24.70
2019-01-25T07:01:52.074Z,24.87
2019-01-25T07:04:23.793Z,21.10
2019-01-25T07:09:26.404Z,22.48
2019-01-25T07:11:58.070Z,22.00
2019-01-25T07:14:29.726Z,21.27
2019-01-25T07:19:32.088Z,22.93
2019-01-25T07:22:03.780Z,22.13
2019-01-25T07:24:35.389Z,23.20
2019-01-25T07:27:07.077Z,24.65
2019-01-25T07:29:38.876Z,21.97
2019-01-25T07:32:10.842Z,24.40
2019-01-25T07:34:42.695Z,25.57
2019-01-25T07:37:14.366Z,28.42
2019-01-25T07:39:46.075Z,26.35
2019-01-25T07:42:17.818Z,25.20
2019-01-25T07:44:49.767Z,24.12
2019-01-25T07:47:21.463Z,24.47
2019-01-25T07:49:53.329Z,23.38
2019-01-25T07:52:25.097Z,24.40
2019-01-25T07:54:56.861Z,23.90
2019-01-25T07:57:28.785Z,26.80
2019-01-25T08:00:00.679Z,25.43
2019-01-25T08:02:35.787Z,23.45
2019-01-25T08:07:39.403Z,23.47
2019-01-25T08:10:15.278Z,24.23
2019-01-25T08:12:47.480Z,26.17
2019-01-25T08:15:20.765Z,23.67
2019-01-25T08:20:23.376Z,25.00
2019-01-25T08:22:55.270Z,24.37
2019-01-25T08:25:26.923Z,23.07
2019-01-25T08:27:58.763Z,24.40
2019-01-25T08:33:00.657Z,22.17
2019-01-25T08:35:32.646Z,24.63
2019-01-25T08:38:06.382Z,26.00
2019-01-25T08:40:37.746Z,22.02
2019-01-25T08:45:40.784Z,26.70
2019-01-25T08:50:43.312Z,26.07
2019-01-25T08:53:15.117Z,27.90
2019-01-25T08:55:46.749Z,23.35
2019-01-25T09:00:49.386Z,24.15
2019-01-25T09:03:21.090Z,24.70
2019-01-25T09:05:52.722Z,24.50
2019-01-25T09:10:58.301Z,24.65
2019-01-25T09:13:29.860Z,23.95
2019-01-25T09:16:01.407Z,27.05
2019-01-25T09:18:33.166Z,25.62
2019-01-25T09:21:04.743Z,27.60
2019-01-25T09:23:36.457Z,26.90
2019-01-25T09:26:08.314Z,28.62
2019-01-25T09:28:40.313Z,26.70
2019-01-25T09:31:12.312Z,27.65
2019-01-25T09:33:43.867Z,26.10
2019-01-25T09:36:15.389Z,27.00
2019-01-25T09:38:47.310Z,25.10
2019-01-25T09:41:18.840Z,27.80
2019-01-25T09:43:50.630Z,24.65
2019-01-25T09:46:22.360Z,26.35
2019-01-25T09:48:54.059Z,23.60
2019-01-25T09:51:25.785Z,27.10
2019-01-25T09:53:57.381Z,23.67
2019-01-25T09:56:29.033Z,23.18
2019-01-25T09:59:01.759Z,25.82
2019-01-25T10:04:03.805Z,24.60
2019-01-25T10:06:36.331Z,24.37
2019-01-25T10:09:11.349Z,23.98
2019-01-25T10:11:43.345Z,24.45
2019-01-25T10:14:15.067Z,24.37
2019-01-25T10:16:47.294Z,26.10
2019-01-25T10:19:18.865Z,24.65
2019-01-25T10:21:50.767Z,23.67
2019-01-25T10:26:53.604Z,26.12
2019-01-25T10:29:25.368Z,22.17
2019-01-25T10:31:57.066Z,23.80
2019-01-25T10:34:28.762Z,24.65
2019-01-25T10:37:00.730Z,22.40
2019-01-25T10:42:03.313Z,23.90
2019-01-25T10:44:34.859Z,20.48
2019-01-25T10:47:06.397Z,23.00
2019-01-25T10:49:38.300Z,22.30
2019-01-25T10:52:11.710Z,24.90
2019-01-25T10:54:43.406Z,24.90
2019-01-25T10:57:15.267Z,25.10
2019-01-25T10:59:46.988Z,23.20
2019-01-25T11:02:18.766Z,24.30
2019-01-25T11:09:54.797Z,24.72
2019-01-25T11:12:26.398Z,22.73
2019-01-25T11:14:58.306Z,23.10
2019-01-25T11:17:36.261Z,26.33
2019-01-25T11:20:03.374Z,22.77
2019-01-25T11:22:35.373Z,24.72
2019-01-25T11:25:10.911Z,21.33
2019-01-25T11:27:42.620Z,22.52
2019-01-25T11:30:15.760Z,21.42
2019-01-25T11:35:18.368Z,23.10
2019-01-25T11:37:50.066Z,24.27
2019-01-25T11:40:32.848Z,22.85
2019-01-25T11:43:08.804Z,21.55
2019-01-25T11:45:38.303Z,20.50
2019-01-25T11:48:15.299Z,19.95
2019-01-25T11:50:46.861Z,21.65
2019-01-25T11:53:18.657Z,22.58
2019-01-25T11:55:50.335Z,20.40
2019-01-25T11:58:23.310Z,21.55
2019-01-25T12:00:54.836Z,20.97
2019-01-25T12:03:26.596Z,20.72
2019-01-25T12:05:58.678Z,23.57
2019-01-25T12:08:30.621Z,21.75
2019-01-25T12:11:02.357Z,21.23
2019-01-25T12:13:34.299Z,22.20
2019-01-25T12:16:06.298Z,23.22
2019-01-25T12:18:37.820Z,21.37
2019-01-25T12:21:09.407Z,22.30
2019-01-25T12:23:41.314Z,23.42
2019-01-25T12:26:12.856Z,21.90
2019-01-25T12:28:44.666Z,24.18
2019-01-25T12:31:16.386Z,24.12
2019-01-25T12:33:48.302Z,26.37
2019-01-25T12:36:19.833Z,22.77
2019-01-25T12:38:51.575Z,20.55
2019-01-25T12:41:23.382Z,22.73
2019-01-25T12:43:55.048Z,22.80
2019-01-25T12:46:26.777Z,23.65
2019-01-25T12:52:08.270Z,23.25
2019-01-25T12:54:37.748Z,21.23
2019-01-25T12:57:09.618Z,20.97
2019-01-25T12:59:41.666Z,22.85
2019-01-25T13:02:13.393Z,21.65
2019-01-25T13:04:45.296Z,21.60
2019-01-25T13:07:17.062Z,22.55
2019-01-25T13:09:48.750Z,23.47
2019-01-25T13:14:51.729Z,21.75
2019-01-25T13:19:54.296Z,25.23
2019-01-25T13:22:25.800Z,25.77
2019-01-25T13:24:57.405Z,25.45
2019-01-25T13:27:29.845Z,20.43
2019-01-25T13:30:01.379Z,22.27
2019-01-25T13:32:33.373Z,22.20
2019-01-25T13:35:06.035Z,24.40
2019-01-25T13:37:37.746Z,21.85
2019-01-25T13:42:44.393Z,21.80
2019-01-25T13:45:18.759Z,20.75
2019-01-25T13:47:50.393Z,23.80
2019-01-25T13:50:28.309Z,25.55
2019-01-25T13:52:59.859Z,23.20
2019-01-25T13:55:31.773Z,23.47
2019-01-25T14:00:35.825Z,20.52
2019-01-25T14:03:07.602Z,22.60
2019-01-25T14:05:39.371Z,22.87
2019-01-25T14:08:11.301Z,22.65
2019-01-25T14:10:42.989Z,25.27
2019-01-25T14:13:14.791Z,23.10
2019-01-25T14:18:17.368Z,25.08
2019-01-25T14:20:49.766Z,22.73
2019-01-25T14:23:22.294Z,23.22
2019-01-25T14:25:53.937Z,23.18
2019-01-25T14:28:25.786Z,25.75
2019-01-25T14:33:28.304Z,26.25
2019-01-25T14:35:59.798Z,23.30
2019-01-25T14:38:31.685Z,24.05
2019-01-25T14:43:34.308Z,22.95
2019-01-25T14:46:05.959Z,23.32
2019-01-25T14:48:38.316Z,25.43
2019-01-25T14:51:10.317Z,21.97
2019-01-25T14:53:41.886Z,22.75
2019-01-25T14:56:13.640Z,24.43
2019-01-25T14:58:45.398Z,21.45
2019-01-25T15:01:17.353Z,26.90
2019-01-25T15:03:49.728Z,21.25
2019-01-25T15:08:52.393Z,21.57
2019-01-25T15:11:24.074Z,34.35
2019-01-25T15:14:02.306Z,30.62
2019-01-25T15:16:29.318Z,36.73
2019-01-25T15:19:01.622Z,37.58
2019-01-25T15:21:33.825Z,28.73
2019-01-25T15:24:05.619Z,32.75
2019-01-25T15:26:37.741Z,33.88
2019-01-25T15:31:40.634Z,26.23
2019-01-25T15:34:12.369Z,37.28
2019-01-25T15:36:44.062Z,40.30
2019-01-25T15:39:15.795Z,37.00
2019-01-25T15:44:18.380Z,38.60
2019-01-25T15:46:50.037Z,41.40
2019-01-25T15:49:21.737Z,41.73
2019-01-25T15:54:24.400Z,48.75
2019-01-25T15:56:56.073Z,49.53
2019-01-25T15:59:27.805Z,44.73
2019-01-25T16:01:59.753Z,47.88
2019-01-25T16:07:03.802Z,46.90
2019-01-25T16:09:35.352Z,44.10
2019-01-25T16:12:07.616Z,43.33
2019-01-25T16:14:39.377Z,47.53
2019-01-25T16:17:11.080Z,46.63
2019-01-25T16:19:42.765Z,41.30
2019-01-25T16:22:14.654Z,44.65
2019-01-25T16:24:46.428Z,43.08
2019-01-25T16:27:18.046Z,43.13
2019-01-25T16:29:50.357Z,45.08
2019-01-25T16:32:22.028Z,42.27
2019-01-25T16:34:53.797Z,42.88
2019-01-25T16:39:56.423Z,35.40
2019-01-25T16:42:28.597Z,26.90
2019-01-25T16:45:00.367Z,29.67
2019-01-25T16:47:32.129Z,36.23
2019-01-25T16:50:03.794Z,40.65
2019-01-25T16:52:35.421Z,39.05
2019-01-25T16:55:09.350Z,39.27
2019-01-25T16:57:41.296Z,43.83
2019-01-25T17:00:51.556Z,42.62
2019-01-25T17:03:23.404Z,42.40
2019-01-25T17:05:55.077Z,47.45
2019-01-25T17:08:26.761Z,47.43
2019-01-25T17:16:00.791Z,45.38
2019-01-25T17:21:03.309Z,46.48
2019-01-25T17:23:35.379Z,44.23
2019-01-25T17:26:07.121Z,38.85
2019-01-25T17:28:39.757Z,37.08
2019-01-25T17:33:42.627Z,34.08
2019-01-25T17:36:14.354Z,35.33
2019-01-25T17:38:46.069Z,29.07
2019-01-25T17:41:17.829Z,32.48
2019-01-25T17:43:49.623Z,26.93
2019-01-25T17:46:21.358Z,26.95
2019-01-25T17:48:53.044Z,29.12
2019-01-25T17:51:24.814Z,26.37
2019-01-25T17:53:56.513Z,34.05
2019-01-25T17:56:28.316Z,32.33
2019-01-25T17:58:59.912Z,35.05
2019-01-25T18:01:31.776Z,31.93
2019-01-25T18:04:03.754Z,38.92
2019-01-25T18:06:35.329Z,40.60
2019-01-25T18:09:09.413Z,38.88
2019-01-25T18:11:41.308Z,39.42
2019-01-25T18:16:02.475Z,41.57
2019-01-25T18:18:34.310Z,38.42
2019-01-25T18:21:05.859Z,35.03
2019-01-25T18:23:37.747Z,44.83
2019-01-25T18:29:46.977Z,40.35
2019-01-25T18:32:18.754Z,40.52
2019-01-25T18:37:21.767Z,37.35
2019-01-25T18:42:33.487Z,36.45
2019-01-25T18:45:05.775Z,36.13
2019-01-25T18:50:11.306Z,27.13
2019-01-25T18:52:43.310Z,21.25
2019-01-25T18:55:19.289Z,26.00
2019-01-25T18:57:51.088Z,24.10
2019-01-25T19:00:23.773Z,24.25
2019-01-25T19:02:58.418Z,22.70
2019-01-25T19:05:30.067Z,21.80
2019-01-25T19:08:01.791Z,19.87
2019-01-25T19:10:33.609Z,21.30
2019-01-25T19:13:05.380Z,21.40
2019-01-25T19:15:37.385Z,20.62
2019-01-25T19:18:09.061Z,20.17
2019-01-25T19:20:40.768Z,19.85
2019-01-25T19:23:12.605Z,20.60
2019-01-25T19:25:44.366Z,21.62
2019-01-25T19:28:16.300Z,25.95
2019-01-25T19:30:49.300Z,23.90
2019-01-25T19:33:20.988Z,23.12
2019-01-25T19:35:52.722Z,23.45
2019-01-25T19:40:56.408Z,24.40
2019-01-25T19:43:28.267Z,27.58
2019-01-25T19:45:59.834Z,23.80
2019-01-25T19:48:31.407Z,24.72
2019-01-25T19:51:03.062Z,24.85
2019-01-25T19:53:35.801Z,26.37
2019-01-25T19:56:07.771Z,22.95
2019-01-25T20:01:10.302Z,23.38
2019-01-25T20:03:41.837Z,27.10
2019-01-25T20:06:13.611Z,26.17
2019-01-25T20:08:45.373Z,26.93
2019-01-25T20:11:17.556Z,18.92
2019-01-25T20:13:50.302Z,25.23
2019-01-25T20:16:21.825Z,23.35
2019-01-25T20:18:53.880Z,24.25
2019-01-25T20:21:26.669Z,23.18
2019-01-25T20:26:28.628Z,23.25
2019-01-25T20:29:00.438Z,22.30
2019-01-25T20:31:32.040Z,23.00
2019-01-25T20:34:03.792Z,22.35
2019-01-25T20:36:43.745Z,18.90
2019-01-25T20:41:46.300Z,21.10
2019-01-25T20:44:22.298Z,21.23
2019-01-25T20:46:54.066Z,15.80
2019-01-25T20:49:25.852Z,16.50
2019-01-25T20:51:59.694Z,17.73
2019-01-25T20:57:02.326Z,18.95
2019-01-25T20:59:34.306Z,16.75
2019-01-25T21:02:06.362Z,16.42
2019-01-25T21:04:38.297Z,15.40
2019-01-25T21:07:09.817Z,16.10
2019-01-25T21:09:41.615Z,17.55
2019-01-25T21:12:13.285Z,17.65
2019-01-25T21:14:44.868Z,15.63
2019-01-25T21:17:16.646Z,19.27
2019-01-25T21:19:48.332Z,17.37
2019-01-25T21:22:20.054Z,17.50
2019-01-25T21:24:52.262Z,18.60
2019-01-25T21:27:23.992Z,16.60
2019-01-25T21:29:55.700Z,17.45
2019-01-25T21:34:58.267Z,17.70
2019-01-25T21:37:30.329Z,18.15
2019-01-25T21:40:08.502Z,16.87
2019-01-25T21:42:35.758Z,18.00
2019-01-25T21:47:41.362Z,17.30
2019-01-25T21:50:16.787Z,16.32
2019-01-25T21:55:19.509Z,17.20
2019-01-25T21:57:51.747Z,16.17
2019-01-25T22:02:57.569Z,17.20
2019-01-25T22:05:29.301Z,16.73
2019-01-25T22:08:01.722Z,16.32
2019-01-25T22:10:38.802Z,14.80
2019-01-25T22:13:10.577Z,16.77
2019-01-25T22:15:42.264Z,15.78
2019-01-25T22:18:13.876Z,18.48
2019-01-25T22:20:45.794Z,16.55
2019-01-25T22:25:49.074Z,15.95
2019-01-25T22:28:20.746Z,16.20
2019-01-25T22:33:23.306Z,15.13
2019-01-25T22:35:54.884Z,16.95
2019-01-25T22:38:26.765Z,14.40
2019-01-25T22:43:29.300Z,15.20
2019-01-25T22:46:01.314Z,14.75
2019-01-25T22:48:33.533Z,15.23
2019-01-25T22:53:36.423Z,14.30
2019-01-25T22:56:08.292Z,14.13
2019-01-25T22:58:39.874Z,13.90
2019-01-25T23:01:27.748Z,14.18
2019-01-25T23:07:36.873Z,16.23
2019-01-25T23:10:21.764Z,14.15
2019-01-25T23:15:24.806Z,15.63
2019-01-25T23:17:56.462Z,14.15
2019-01-25T23:20:28.728Z,15.18
2019-01-25T23:23:00.354Z,14.40
2019-01-25T23:25:32.300Z,13.62
2019-01-25T23:28:03.843Z,13.13
2019-01-25T23:30:35.746Z,14.15
2019-01-25T23:35:38.305Z,14.43
2019-01-25T23:38:10.002Z,13.50
2019-01-25T23:40:41.798Z,14.03
2019-01-25T23:43:13.585Z,14.43
2019-01-25T23:45:45.368Z,14.40
2019-01-25T23:48:17.065Z,15.35
2019-01-25T23:50:48.885Z,12.20
2019-01-25T23:53:20.770Z,14.85
2019-01-25T23:58:25.069Z,15.10
